Time;durP1;ratioP1;P1;durP2;ratioP2;P2;SDS_P1;SDS_P2;PMS_P1;PMS_P2;Temp;Humidity;BMP_temperature;BMP_pressure;BME280_temperature;BME280_humidity;BME280_pressure;Samples;Min_cycle;Max_cycle;Signal;HPM_P1;HPM_P2
2022/04/07 00:00:34;;;;;;;2.08;1.23;;;6.00;99.90;;;;;;5147228;27;20562;-59
2022/04/07 00:03:14;;;;;;;1.40;1.20;;;6.20;99.90;;;;;;5147326;27;20550;-61
2022/04/07 00:05:54;;;;;;;1.40;1.30;;;6.30;99.90;;;;;;5127052;27;20573;-59
2022/04/07 00:08:34;;;;;;;1.23;1.08;;;6.30;99.90;;;;;;5086050;27;20580;-59
2022/04/07 00:11:13;;;;;;;1.15;1.05;;;6.40;99.90;;;;;;5147536;27;20994;-59
2022/04/07 00:13:53;;;;;;;1.25;1.15;;;6.50;99.90;;;;;;5147445;27;20547;-58
2022/04/07 00:16:33;;;;;;;1.27;1.17;;;6.50;99.90;;;;;;5147180;27;20568;-59
2022/04/07 00:19:13;;;;;;;2.35;1.20;;;6.60;99.90;;;;;;5147090;27;20560;-58
2022/04/07 00:21:53;;;;;;;1.10;1.10;;;6.70;99.90;;;;;;5126749;27;20571;-59
2022/04/07 00:24:33;;;;;;;0.90;0.82;;;6.80;99.90;;;;;;5126677;27;21033;-59
2022/04/07 00:27:13;;;;;;;2.05;1.30;;;6.80;99.90;;;;;;5085907;27;20559;-59
2022/04/07 00:29:52;;;;;;;2.15;1.15;;;7.00;99.90;;;;;;5127049;27;20659;-60
2022/04/07 00:32:32;;;;;;;1.58;1.33;;;7.00;99.90;;;;;;5106283;27;20550;-59
2022/04/07 00:35:12;;;;;;;1.23;1.10;;;6.90;99.90;;;;;;5105887;27;20955;-59
2022/04/07 00:37:52;;;;;;;1.20;1.10;;;6.90;99.90;;;;;;5126903;27;20601;-59
2022/04/07 00:40:32;;;;;;;1.27;1.15;;;6.80;99.90;;;;;;5085483;27;20539;-59
2022/04/07 00:43:29;;;;;;;2.53;1.30;;;6.80;99.90;;;;;;5163224;27;20564;-59
2022/04/07 00:46:09;;;;;;;1.20;1.10;;;6.70;99.90;;;;;;5126690;27;20570;-59
2022/04/07 00:48:49;;;;;;;2.95;1.13;;;6.80;99.90;;;;;;5126875;27;20562;-59
2022/04/07 00:51:29;;;;;;;2.55;1.10;;;6.80;99.90;;;;;;5147915;27;21107;-59
2022/04/07 00:54:09;;;;;;;2.45;1.30;;;6.80;99.90;;;;;;5147601;27;20550;-59
2022/04/07 00:56:48;;;;;;;0.98;0.98;;;6.80;99.90;;;;;;5085955;27;20565;-59
2022/04/07 00:59:29;;;;;;;0.90;0.85;;;6.90;99.90;;;;;;5147035;27;20556;-58
2022/04/07 01:02:09;;;;;;;1.15;1.00;;;7.00;99.90;;;;;;5085653;27;20580;-58
2022/04/07 01:04:49;;;;;;;1.30;1.15;;;7.10;99.90;;;;;;5086639;27;20577;-59
2022/04/07 01:07:29;;;;;;;1.60;1.40;;;7.10;99.90;;;;;;5106181;27;20551;-59
2022/04/07 01:10:10;;;;;;;2.00;1.30;;;7.20;99.90;;;;;;5085598;27;20569;-58
2022/04/07 01:12:50;;;;;;;1.05;0.88;;;7.20;99.90;;;;;;5106123;27;20558;-58
2022/04/07 01:15:30;;;;;;;2.08;1.45;;;7.20;99.90;;;;;;5126841;27;20544;-58
2022/04/07 01:18:10;;;;;;;1.80;1.70;;;7.30;99.90;;;;;;5085895;27;20557;-58
2022/04/07 01:20:50;;;;;;;1.42;1.33;;;7.30;99.90;;;;;;5085664;28;21127;-59
2022/04/07 01:23:34;;;;;;;1.42;1.15;;;7.30;99.90;;;;;;5085935;27;21146;-59
2022/04/07 01:26:16;;;;;;;1.80;1.60;;;7.30;99.90;;;;;;5085974;28;20552;-59
2022/04/07 01:28:56;;;;;;;2.45;1.33;;;7.30;99.90;;;;;;5147157;27;20538;-58
2022/04/07 01:31:36;;;;;;;2.10;1.65;;;7.30;99.90;;;;;;5085986;27;20570;-59
2022/04/07 01:34:17;;;;;;;1.52;1.42;;;7.30;99.90;;;;;;5086029;27;20549;-59
2022/04/07 01:36:57;;;;;;;1.63;1.52;;;7.30;99.90;;;;;;5086179;27;20616;-59
2022/04/07 01:39:38;;;;;;;1.10;1.10;;;7.30;99.90;;;;;;5126584;27;20540;-58
2022/04/07 01:42:17;;;;;;;1.35;1.25;;;7.20;99.90;;;;;;5106670;27;20557;-59
2022/04/07 01:44:59;;;;;;;1.90;1.70;;;7.10;99.90;;;;;;5086556;27;20548;-58
2022/04/07 01:47:41;;;;;;;1.95;1.75;;;7.00;99.90;;;;;;5086235;27;20566;-59
2022/04/07 01:50:24;;;;;;;1.40;1.30;;;7.00;99.90;;;;;;5121162;27;20555;-58
2022/04/07 01:53:05;;;;;;;1.50;1.30;;;7.00;99.90;;;;;;5162055;27;20545;-59
2022/04/07 01:55:44;;;;;;;1.80;1.30;;;6.90;99.90;;;;;;5106407;27;20576;-59
2022/04/07 01:58:36;;;;;;;2.38;1.30;;;7.00;99.90;;;;;;5147129;27;20530;-57
2022/04/07 02:01:16;;;;;;;1.35;1.25;;;7.10;99.90;;;;;;5126491;27;20548;-58
2022/04/07 02:03:55;;;;;;;1.23;1.10;;;7.20;99.90;;;;;;5148470;27;20568;-59
2022/04/07 02:06:35;;;;;;;0.85;0.85;;;7.20;99.90;;;;;;5086245;27;21076;-59
2022/04/07 02:09:14;;;;;;;1.10;1.10;;;7.30;99.90;;;;;;5106470;27;20654;-59
2022/04/07 02:11:54;;;;;;;1.20;1.10;;;7.40;99.90;;;;;;5152060;27;20548;-58
2022/04/07 02:14:35;;;;;;;0.98;0.98;;;7.50;99.90;;;;;;5085936;28;20551;-58
2022/04/07 02:17:14;;;;;;;0.90;0.90;;;7.50;99.90;;;;;;5147453;27;20534;-58
2022/04/07 02:19:55;;;;;;;0.88;0.88;;;7.50;99.90;;;;;;5106317;27;20542;-59
2022/04/07 02:22:35;;;;;;;1.23;1.05;;;7.60;99.90;;;;;;5085740;27;20577;-59
2022/04/07 02:25:15;;;;;;;2.45;1.00;;;7.70;99.90;;;;;;5147791;27;20546;-59
2022/04/07 02:27:55;;;;;;;1.73;1.10;;;7.80;99.90;;;;;;5147200;27;21011;-58
2022/04/07 02:30:35;;;;;;;1.25;1.15;;;7.90;99.90;;;;;;5126383;27;20553;-59
2022/04/07 02:33:15;;;;;;;0.80;0.80;;;7.90;99.90;;;;;;5085529;27;20548;-58
2022/04/07 02:35:54;;;;;;;1.10;0.90;;;8.00;99.90;;;;;;5086190;27;20545;-58
2022/04/07 02:38:35;;;;;;;1.30;1.00;;;8.10;99.90;;;;;;5085616;27;20574;-57
2022/04/07 02:41:14;;;;;;;1.00;1.00;;;8.10;99.90;;;;;;5126583;27;20675;-58
2022/04/07 02:43:55;;;;;;;1.05;1.05;;;8.10;99.90;;;;;;5085750;28;21060;-59
2022/04/07 02:46:35;;;;;;;0.93;0.70;;;8.00;99.90;;;;;;5106127;27;20545;-58
2022/04/07 02:49:15;;;;;;;1.02;1.02;;;8.00;99.90;;;;;;5085811;27;20568;-58
2022/04/07 02:51:55;;;;;;;0.77;0.77;;;8.10;99.90;;;;;;5151842;27;21084;-59
2022/04/07 02:54:35;;;;;;;0.80;0.55;;;8.20;99.90;;;;;;5085915;28;20546;-58
2022/04/07 02:57:15;;;;;;;0.73;0.70;;;8.10;99.90;;;;;;5127262;27;20532;-58
2022/04/07 02:59:54;;;;;;;0.45;0.45;;;8.00;99.90;;;;;;5125816;27;20552;-58
2022/04/07 03:02:35;;;;;;;0.88;0.70;;;7.80;99.90;;;;;;5106498;27;20566;-57
2022/04/07 03:05:15;;;;;;;0.75;0.70;;;7.70;99.90;;;;;;5105910;27;20542;-59
2022/04/07 03:07:55;;;;;;;0.77;0.70;;;7.80;99.90;;;;;;5146777;27;20535;-58
2022/04/07 03:10:35;;;;;;;0.50;0.50;;;7.90;99.90;;;;;;5085553;27;20573;-58
2022/04/07 03:13:15;;;;;;;0.50;0.50;;;8.00;99.90;;;;;;5127114;27;21069;-59
2022/04/07 03:15:55;;;;;;;0.45;0.45;;;8.00;99.90;;;;;;5106840;27;20970;-59
2022/04/07 03:18:35;;;;;;;0.52;0.50;;;8.00;99.90;;;;;;5147660;27;20538;-58
2022/04/07 03:21:15;;;;;;;0.63;0.50;;;8.00;99.90;;;;;;5086228;27;20570;-59
2022/04/07 03:23:54;;;;;;;0.60;0.60;;;8.00;99.90;;;;;;5147399;27;20530;-58
2022/04/07 03:26:34;;;;;;;1.45;0.90;;;8.00;99.90;;;;;;5146841;27;21059;-58
2022/04/07 03:29:14;;;;;;;0.70;0.70;;;7.90;99.90;;;;;;5105697;27;20541;-57
2022/04/07 03:31:54;;;;;;;0.35;0.35;;;7.80;99.90;;;;;;5085796;27;20552;-59
2022/04/07 03:34:36;;;;;;;0.55;0.55;;;7.70;99.90;;;;;;5085825;28;20569;-59
2022/04/07 03:37:15;;;;;;;0.57;0.57;;;7.40;99.90;;;;;;5147390;27;20960;-58
2022/04/07 03:39:55;;;;;;;0.43;0.40;;;7.10;99.90;;;;;;5106033;27;20537;-59
2022/04/07 03:42:35;;;;;;;0.73;0.60;;;6.80;99.90;;;;;;5157770;27;20568;-59
2022/04/07 03:45:15;;;;;;;0.77;0.77;;;6.60;99.90;;;;;;5126611;27;20544;-59
2022/04/07 03:47:54;;;;;;;1.08;0.98;;;6.50;99.90;;;;;;5106310;27;21177;-59
2022/04/07 03:50:35;;;;;;;0.80;0.80;;;6.30;99.90;;;;;;5085411;27;20531;-59
2022/04/07 03:53:14;;;;;;;0.60;0.60;;;6.20;99.90;;;;;;5106330;27;20561;-59
2022/04/07 03:55:54;;;;;;;0.60;0.60;;;6.10;99.90;;;;;;5105869;27;20542;-58
2022/04/07 03:58:34;;;;;;;0.70;0.70;;;6.00;99.90;;;;;;5137621;27;20568;-59
2022/04/07 04:01:14;;;;;;;0.52;0.52;;;6.10;99.90;;;;;;5146485;27;20551;-59
2022/04/07 04:03:54;;;;;;;1.08;0.65;;;6.00;99.90;;;;;;5105679;27;20644;-59
2022/04/07 04:06:33;;;;;;;0.55;0.55;;;5.90;99.90;;;;;;5126404;27;21182;-58
2022/04/07 04:09:13;;;;;;;0.55;0.52;;;5.80;99.90;;;;;;5126399;27;20535;-57
2022/04/07 04:11:53;;;;;;;1.20;0.73;;;5.60;99.90;;;;;;5151420;27;20537;-59
2022/04/07 04:14:33;;;;;;;0.50;0.50;;;5.60;99.90;;;;;;5086172;27;20553;-59
2022/04/07 04:17:13;;;;;;;0.65;0.65;;;5.50;99.90;;;;;;5086068;27;20593;-59
2022/04/07 04:19:52;;;;;;;0.50;0.50;;;5.50;99.90;;;;;;5126541;27;20949;-59
2022/04/07 04:22:33;;;;;;;0.70;0.70;;;5.50;99.90;;;;;;5085196;27;20581;-59
2022/04/07 04:25:12;;;;;;;0.65;0.55;;;5.50;99.90;;;;;;5085676;27;20570;-58
2022/04/07 04:27:52;;;;;;;0.80;0.80;;;5.70;99.90;;;;;;5106384;27;20805;-59
2022/04/07 04:30:32;;;;;;;0.52;0.52;;;6.00;99.90;;;;;;5126870;27;20554;-59
2022/04/07 04:33:12;;;;;;;0.40;0.40;;;6.20;99.90;;;;;;5110623;27;20549;-59
2022/04/07 04:35:52;;;;;;;0.65;0.60;;;6.30;99.90;;;;;;5085974;27;20546;-59
2022/04/07 04:38:31;;;;;;;0.40;0.40;;;6.30;99.90;;;;;;5147335;27;20568;-58
2022/04/07 04:41:11;;;;;;;0.68;0.50;;;6.30;99.90;;;;;;5126516;27;20568;-59
2022/04/07 04:43:51;;;;;;;0.80;0.80;;;6.10;99.90;;;;;;5085170;27;20583;-59
2022/04/07 04:46:31;;;;;;;0.60;0.60;;;6.10;99.90;;;;;;5085738;27;21068;-58
2022/04/07 04:49:11;;;;;;;0.43;0.43;;;6.10;99.90;;;;;;5126712;27;20660;-58
2022/04/07 04:51:50;;;;;;;0.50;0.50;;;6.10;99.90;;;;;;5106205;27;20679;-58
2022/04/07 04:54:30;;;;;;;0.25;0.25;;;6.10;99.90;;;;;;5126873;27;20562;-58
2022/04/07 04:57:10;;;;;;;0.57;0.47;;;6.20;99.90;;;;;;5085517;27;20568;-59
2022/04/07 04:59:50;;;;;;;0.50;0.50;;;6.50;99.90;;;;;;5105457;27;21074;-59
2022/04/07 05:02:30;;;;;;;0.65;0.47;;;6.70;99.90;;;;;;5096161;27;21095;-59
2022/04/07 05:05:11;;;;;;;0.40;0.40;;;6.90;99.90;;;;;;5146894;27;20556;-59
2022/04/07 05:07:51;;;;;;;1.52;0.57;;;7.00;99.90;;;;;;5085423;27;21151;-57
2022/04/07 05:10:31;;;;;;;0.57;0.57;;;7.20;99.90;;;;;;5085331;27;20540;-58
2022/04/07 05:13:10;;;;;;;0.88;0.70;;;7.30;99.90;;;;;;5111170;27;20709;-58
2022/04/07 05:15:50;;;;;;;1.52;1.23;;;7.40;99.90;;;;;;5147370;27;20556;-59
2022/04/07 05:18:30;;;;;;;1.20;0.80;;;7.50;99.90;;;;;;5106025;27;20579;-59
2022/04/07 05:21:10;;;;;;;0.70;0.70;;;7.60;99.90;;;;;;5147238;27;20538;-60
2022/04/07 05:23:50;;;;;;;0.80;0.80;;;7.70;99.90;;;;;;5106226;27;20541;-58
2022/04/07 05:26:30;;;;;;;0.70;0.70;;;7.80;99.90;;;;;;5085825;27;20581;-58
2022/04/07 05:29:09;;;;;;;0.70;0.70;;;7.90;99.90;;;;;;5086167;27;20556;-58
2022/04/07 05:31:49;;;;;;;1.35;0.90;;;8.00;99.90;;;;;;5106405;27;20545;-59
2022/04/07 05:34:29;;;;;;;0.85;0.85;;;8.00;99.90;;;;;;5086069;28;21375;-58
2022/04/07 05:37:09;;;;;;;0.82;0.82;;;8.00;99.90;;;;;;5127084;27;20663;-59
2022/04/07 05:39:51;;;;;;;0.90;0.90;;;8.00;99.90;;;;;;5105834;27;20673;-58
2022/04/07 05:42:30;;;;;;;0.73;0.73;;;8.00;99.90;;;;;;5085947;27;20551;-58
2022/04/07 05:45:12;;;;;;;1.15;1.05;;;8.10;99.90;;;;;;5105984;27;20567;-58
2022/04/07 05:47:51;;;;;;;2.25;2.05;;;8.30;99.90;;;;;;5086061;28;20887;-58
2022/04/07 05:50:31;;;;;;;1.00;1.00;;;8.50;99.90;;;;;;5105906;27;21076;-58
2022/04/07 05:53:11;;;;;;;1.50;1.40;;;8.60;99.90;;;;;;5106340;27;20561;-58
2022/04/07 05:55:51;;;;;;;0.68;0.68;;;8.80;99.90;;;;;;5106227;27;20666;-58
2022/04/07 05:58:31;;;;;;;1.05;1.05;;;9.10;99.90;;;;;;5126419;27;20960;-59
2022/04/07 06:01:11;;;;;;;1.23;1.23;;;9.30;99.90;;;;;;5085557;27;20552;-58
2022/04/07 06:03:50;;;;;;;0.60;0.60;;;9.50;99.90;;;;;;5106722;27;20564;-59
2022/04/07 06:06:30;;;;;;;0.52;0.52;;;9.50;99.90;;;;;;5085843;27;21108;-59
2022/04/07 06:09:10;;;;;;;0.60;0.60;;;9.50;99.90;;;;;;5085651;27;20869;-58
2022/04/07 06:11:50;;;;;;;0.40;0.35;;;9.60;99.90;;;;;;5106722;27;21000;-59
2022/04/07 06:14:30;;;;;;;0.43;0.43;;;9.50;99.90;;;;;;5086244;28;20548;-58
2022/04/07 06:17:10;;;;;;;0.80;0.80;;;9.50;99.90;;;;;;5086299;27;20543;-58
2022/04/07 06:19:49;;;;;;;0.70;0.68;;;9.50;99.90;;;;;;5106571;27;20546;-58
2022/04/07 06:22:29;;;;;;;0.60;0.60;;;9.70;99.90;;;;;;5086408;28;20660;-58
2022/04/07 06:25:10;;;;;;;0.50;0.50;;;10.00;99.90;;;;;;5106365;27;20529;-59
2022/04/07 06:27:49;;;;;;;0.60;0.60;;;10.10;99.90;;;;;;5086526;27;20536;-58
2022/04/07 06:30:29;;;;;;;0.60;0.60;;;10.10;99.90;;;;;;5085719;27;20577;-59
2022/04/07 06:33:09;;;;;;;0.30;0.30;;;10.10;99.90;;;;;;5162597;27;20629;-58
2022/04/07 06:35:48;;;;;;;0.50;0.50;;;10.00;99.90;;;;;;5086082;27;20555;-59
2022/04/07 06:38:30;;;;;;;0.73;0.73;;;10.10;99.90;;;;;;5086050;27;21131;-58
2022/04/07 06:41:10;;;;;;;1.30;0.43;;;10.40;99.90;;;;;;5126784;27;21172;-58
2022/04/07 06:43:49;;;;;;;0.30;0.30;;;10.70;99.90;;;;;;5106280;27;20542;-58
2022/04/07 06:46:29;;;;;;;0.65;0.60;;;10.90;99.90;;;;;;5148253;27;20545;-58
2022/04/07 06:49:09;;;;;;;0.40;0.40;;;11.20;99.90;;;;;;5085983;28;20668;-58
2022/04/07 06:51:49;;;;;;;1.38;0.30;;;11.60;99.90;;;;;;5106310;27;20558;-58
2022/04/07 06:54:29;;;;;;;0.40;0.40;;;11.50;99.90;;;;;;5085550;27;20560;-58
2022/04/07 06:57:09;;;;;;;1.58;0.50;;;11.00;99.90;;;;;;5085944;27;21076;-57
2022/04/07 06:59:49;;;;;;;1.42;0.50;;;10.60;99.90;;;;;;5084837;27;20561;-58
2022/04/07 07:02:28;;;;;;;0.30;0.30;;;10.30;99.90;;;;;;5080413;28;20715;-58
2022/04/07 07:05:09;;;;;;;0.80;0.70;;;10.00;99.90;;;;;;5084951;27;20561;-58
2022/04/07 07:07:48;;;;;;;0.22;0.22;;;9.80;99.90;;;;;;5126937;27;20537;-58
2022/04/07 07:10:28;;;;;;;0.57;0.57;;;9.80;99.90;;;;;;5126040;27;20655;-58
2022/04/07 07:13:08;;;;;;;0.43;0.43;;;9.80;99.90;;;;;;5162209;27;20667;-58
2022/04/07 07:15:48;;;;;;;0.35;0.25;;;9.90;99.90;;;;;;5106275;27;20549;-58
2022/04/07 07:18:27;;;;;;;0.22;0.20;;;9.90;99.90;;;;;;5127015;27;20668;-58
2022/04/07 07:21:07;;;;;;;0.52;0.30;;;10.20;99.90;;;;;;5126613;27;20524;-58
2022/04/07 07:23:47;;;;;;;0.50;0.50;;;10.70;99.90;;;;;;5080561;28;20673;-58
2022/04/07 07:26:27;;;;;;;0.20;0.20;;;11.10;99.90;;;;;;5146351;27;20539;-58
2022/04/07 07:29:06;;;;;;;0.30;0.30;;;11.40;99.90;;;;;;5147588;27;20883;-58
2022/04/07 07:31:46;;;;;;;0.32;0.32;;;11.80;99.90;;;;;;5085993;27;20561;-59
2022/04/07 07:34:26;;;;;;;0.40;0.25;;;12.20;99.90;;;;;;5147594;27;20554;-59
2022/04/07 07:37:06;;;;;;;0.93;0.30;;;12.20;99.90;;;;;;5147854;27;20530;-58
2022/04/07 07:39:46;;;;;;;0.45;0.45;;;11.90;99.90;;;;;;5085485;27;20551;-58
2022/04/07 07:42:26;;;;;;;0.10;0.10;;;11.60;99.90;;;;;;5126928;27;20563;-58
2022/04/07 07:45:07;;;;;;;0.20;0.20;;;11.30;99.90;;;;;;5106106;27;20541;-58
2022/04/07 07:47:47;;;;;;;0.93;0.30;;;11.30;99.90;;;;;;5146472;27;21061;-58
2022/04/07 07:50:27;;;;;;;3.30;0.30;;;11.60;99.90;;;;;;5147258;27;20650;-59
2022/04/07 07:53:07;;;;;;;0.28;0.28;;;11.80;99.90;;;;;;5162575;27;20667;-58
2022/04/07 07:55:47;;;;;;;0.25;0.25;;;12.10;99.90;;;;;;5146848;27;20572;-59
2022/04/07 07:58:26;;;;;;;0.15;0.13;;;12.40;99.90;;;;;;5085768;28;21020;-58
2022/04/07 08:01:06;;;;;;;0.52;0.22;;;12.70;99.90;;;;;;5105996;27;20538;-59
2022/04/07 08:03:46;;;;;;;0.52;0.40;;;13.00;99.90;;;;;;5126897;27;20660;-59
2022/04/07 08:06:26;;;;;;;0.13;0.13;;;13.60;99.90;;;;;;5085726;28;20549;-59
2022/04/07 08:09:06;;;;;;;0.10;0.10;;;14.10;99.90;;;;;;5085863;27;20565;-58
2022/04/07 08:11:45;;;;;;;0.10;0.10;;;14.30;99.90;;;;;;5126438;27;20576;-58
2022/04/07 08:14:25;;;;;;;0.60;0.10;;;14.50;99.90;;;;;;5106131;27;21070;-58
2022/04/07 08:17:05;;;;;;;2.58;0.45;;;14.70;99.90;;;;;;5126765;27;20655;-59
2022/04/07 08:19:45;;;;;;;0.47;0.40;;;14.40;99.90;;;;;;5086193;28;20707;-59
2022/04/07 08:22:25;;;;;;;0.28;0.28;;;14.00;99.90;;;;;;5106147;27;20592;-59
2022/04/07 08:25:05;;;;;;;0.30;0.28;;;14.00;99.90;;;;;;5086073;27;20569;-59
2022/04/07 08:27:45;;;;;;;1.35;0.50;;;14.30;99.90;;;;;;5127060;27;20532;-59
2022/04/07 08:30:24;;;;;;;0.52;0.32;;;14.50;99.90;;;;;;5147291;27;20534;-59
2022/04/07 08:33:05;;;;;;;0.50;0.50;;;14.40;99.90;;;;;;5085828;27;20565;-59
2022/04/07 08:35:44;;;;;;;0.30;0.30;;;14.70;99.90;;;;;;5148022;27;20882;-57
2022/04/07 08:38:24;;;;;;;0.73;0.43;;;14.50;99.90;;;;;;5085982;27;20595;-59
2022/04/07 08:41:09;;;;;;;0.52;0.40;;;14.20;99.90;;;;;;5105752;27;20557;-58
2022/04/07 08:43:48;;;;;;;0.40;0.40;;;14.30;99.90;;;;;;5086024;27;20572;-59
2022/04/07 08:46:29;;;;;;;1.08;0.13;;;14.00;99.90;;;;;;5085823;27;20560;-58
2022/04/07 08:49:11;;;;;;;0.32;0.20;;;13.70;99.90;;;;;;5085916;27;20920;-58
2022/04/07 08:51:52;;;;;;;0.22;0.20;;;13.80;99.90;;;;;;5150843;27;20669;-59
2022/04/07 08:54:33;;;;;;;0.68;0.35;;;14.00;99.90;;;;;;5126936;27;20544;-59
2022/04/07 08:57:12;;;;;;;0.30;0.30;;;14.30;99.90;;;;;;5147428;27;20531;-59
2022/04/07 08:59:52;;;;;;;0.40;0.40;;;14.00;99.90;;;;;;5105949;27;20595;-62
2022/04/07 09:02:32;;;;;;;0.30;0.30;;;13.60;99.90;;;;;;5086118;27;20547;-58
2022/04/07 09:05:12;;;;;;;0.38;0.10;;;13.30;99.90;;;;;;5106476;27;20530;-58
2022/04/07 09:07:52;;;;;;;0.52;0.10;;;13.20;99.90;;;;;;5126981;27;20540;-58
2022/04/07 09:10:31;;;;;;;0.22;0.20;;;13.40;99.90;;;;;;5106168;27;20615;-59
2022/04/07 09:13:12;;;;;;;0.50;0.10;;;13.80;99.90;;;;;;5085764;28;20687;-59
2022/04/07 09:15:51;;;;;;;0.50;0.28;;;14.40;99.90;;;;;;5126682;27;20544;-58
2022/04/07 09:18:34;;;;;;;0.70;0.40;;;14.80;99.90;;;;;;5106148;27;20534;-59
2022/04/07 09:21:23;;;;;;;1.33;0.35;;;15.10;99.90;;;;;;5126573;27;20562;-59
2022/04/07 09:24:07;;;;;;;0.30;0.30;;;14.90;99.90;;;;;;5126949;27;20533;-58
2022/04/07 09:26:48;;;;;;;0.52;0.30;;;14.70;99.90;;;;;;5126739;27;20532;-58
2022/04/07 09:29:38;;;;;;;0.50;0.50;;;14.30;99.90;;;;;;5085916;27;20569;-58
2022/04/07 09:32:20;;;;;;;0.80;0.80;;;14.10;99.90;;;;;;5106456;27;20557;-57
2022/04/07 09:35:01;;;;;;;0.20;0.10;;;13.60;99.90;;;;;;5086350;27;20543;-58
2022/04/07 09:37:41;;;;;;;1.58;0.30;;;13.40;99.90;;;;;;5086195;27;20566;-59
2022/04/07 09:40:20;;;;;;;0.20;0.20;;;13.40;99.90;;;;;;5135138;27;20543;-59
2022/04/07 09:43:00;;;;;;;0.40;0.40;;;13.50;99.90;;;;;;5106738;27;20878;-57
2022/04/07 09:45:46;;;;;;;0.38;0.38;;;13.30;99.90;;;;;;5147304;27;21071;-58
2022/04/07 09:48:27;;;;;;;0.40;0.40;;;13.00;99.90;;;;;;5147682;27;20542;-59
2022/04/07 09:51:09;;;;;;;0.40;0.40;;;12.90;99.90;;;;;;5085682;27;20562;-58
2022/04/07 09:53:50;;;;;;;0.20;0.20;;;13.10;99.90;;;;;;5085997;27;20577;-59
2022/04/07 09:56:30;;;;;;;0.22;0.22;;;13.30;99.90;;;;;;5105954;27;20972;-60
2022/04/07 09:59:10;;;;;;;0.10;0.10;;;13.40;99.90;;;;;;5085290;27;20570;-57
2022/04/07 10:01:51;;;;;;;0.20;0.20;;;13.30;99.90;;;;;;5085932;27;20578;-58
2022/04/07 10:04:32;;;;;;;0.30;0.30;;;13.30;99.90;;;;;;5147329;27;20958;-58
2022/04/07 10:07:12;;;;;;;0.22;0.22;;;13.40;99.90;;;;;;5106259;27;20534;-57
2022/04/07 10:09:52;;;;;;;0.20;0.20;;;13.40;99.90;;;;;;5085537;27;21088;-58
2022/04/07 10:12:34;;;;;;;0.40;0.40;;;13.60;99.90;;;;;;5086010;27;21076;-58
2022/04/07 10:15:15;;;;;;;0.65;0.40;;;13.80;99.90;;;;;;5086016;27;20561;-59
2022/04/07 10:17:56;;;;;;;0.60;0.40;;;14.10;99.90;;;;;;5126847;27;20548;-59
2022/04/07 10:20:40;;;;;;;0.20;0.20;;;14.20;99.90;;;;;;5085267;27;20566;-58
2022/04/07 10:23:32;;;;;;;1.23;0.40;;;13.90;99.90;;;;;;5085652;27;20584;-58
2022/04/07 10:26:13;;;;;;;0.52;0.20;;;14.40;99.90;;;;;;5105047;27;21081;-58
2022/04/07 10:28:56;;;;;;;0.30;0.30;;;15.00;99.90;;;;;;5146988;27;20534;-58
2022/04/07 10:31:36;;;;;;;0.60;0.40;;;15.30;99.90;;;;;;5076220;28;20533;-58
2022/04/07 10:34:32;;;;;;;0.40;0.20;;;15.00;99.90;;;;;;5085734;27;20568;-59
2022/04/07 10:37:12;;;;;;;1.88;0.22;;;14.90;99.90;;;;;;5084801;27;20585;-58
2022/04/07 10:39:52;;;;;;;0.30;0.30;;;14.90;99.90;;;;;;5105410;27;21062;-59
2022/04/07 10:43:10;;;;;;;0.32;0.20;;;14.70;99.90;;;;;;5106035;27;20611;-58
2022/04/07 10:45:52;;;;;;;0.30;0.30;;;14.50;99.90;;;;;;5085757;28;20672;-58
2022/04/07 10:48:33;;;;;;;1.08;0.10;;;14.40;99.90;;;;;;5085263;27;20565;-58
2022/04/07 10:51:13;;;;;;;0.13;0.10;;;14.30;99.90;;;;;;5126163;27;20672;-58
2022/04/07 10:54:05;;;;;;;0.28;0.28;;;14.10;99.90;;;;;;5105787;27;20670;-58
2022/04/07 10:56:49;;;;;;;0.17;0.17;;;13.90;99.90;;;;;;5125569;27;20564;-58
2022/04/07 10:59:31;;;;;;;0.57;0.30;;;13.80;99.90;;;;;;5146500;27;20527;-58
2022/04/07 11:02:15;;;;;;;0.10;0.10;;;13.70;99.90;;;;;;5085207;28;20680;-58
2022/04/07 11:05:10;;;;;;;0.20;0.20;;;13.50;99.90;;;;;;5147533;27;20649;-58
2022/04/07 11:07:54;;;;;;;1.02;0.30;;;13.40;99.90;;;;;;5147671;27;20564;-60
2022/04/07 11:10:45;;;;;;;0.30;0.30;;;13.30;99.90;;;;;;5085850;28;20664;-58
2022/04/07 11:13:45;;;;;;;0.82;0.57;;;13.20;99.90;;;;;;5085737;27;20543;-59
2022/04/07 11:16:36;;;;;;;0.30;0.30;;;13.10;99.90;;;;;;5085820;28;20648;-59
2022/04/07 11:19:26;;;;;;;1.55;0.35;;;13.00;99.90;;;;;;5147504;27;20661;-58
2022/04/07 11:22:12;;;;;;;0.13;0.13;;;12.90;99.90;;;;;;5085935;28;20551;-59
2022/04/07 11:24:55;;;;;;;0.30;0.30;;;12.80;99.90;;;;;;5085927;28;20648;-58
2022/04/07 11:27:36;;;;;;;0.30;0.30;;;13.00;99.90;;;;;;5086280;28;20688;-59
2022/04/07 11:30:16;;;;;;;2.10;0.38;;;13.40;99.90;;;;;;5147568;27;20571;-58
2022/04/07 11:33:37;;;;;;;0.65;0.43;;;13.90;99.90;;;;;;5086044;28;21205;-58
2022/04/07 11:36:42;;;;;;;0.75;0.32;;;14.50;99.90;;;;;;5106401;27;20542;-58
2022/04/07 11:39:22;;;;;;;2.00;0.57;;;15.30;99.90;;;;;;5085955;28;20553;-59
2022/04/07 11:42:03;;;;;;;0.63;0.60;;;15.60;99.90;;;;;;5085842;27;20559;-58
2022/04/07 11:44:43;;;;;;;1.00;0.90;;;15.70;99.90;;;;;;5126126;27;20547;-58
2022/04/07 11:47:28;;;;;;;1.52;0.50;;;16.20;99.90;;;;;;5085994;27;20573;-58
2022/04/07 11:50:09;;;;;;;1.60;0.45;;;16.50;99.90;;;;;;5106547;27;21202;-57
2022/04/07 11:52:50;;;;;;;1.33;0.85;;;16.50;99.90;;;;;;5073947;28;20886;-58
2022/04/07 11:55:30;;;;;;;0.28;0.28;;;16.40;99.90;;;;;;5147756;27;20535;-58
2022/04/07 11:58:11;;;;;;;0.63;0.40;;;16.00;99.90;;;;;;5084660;28;20671;-57
2022/04/07 12:00:51;;;;;;;0.65;0.65;;;15.30;99.90;;;;;;5085376;27;20565;-59
2022/04/07 12:03:34;;;;;;;0.30;0.30;;;15.10;99.90;;;;;;5067676;28;20690;-59
2022/04/07 12:06:14;;;;;;;0.55;0.10;;;14.90;99.90;;;;;;5105553;27;21197;-57
2022/04/07 12:08:55;;;;;;;0.25;0.25;;;15.10;99.90;;;;;;5126592;27;20544;-58
2022/04/07 12:11:37;;;;;;;0.50;0.50;;;15.20;99.90;;;;;;5146243;27;20963;-59
2022/04/07 12:14:17;;;;;;;0.65;0.25;;;15.50;99.90;;;;;;5142259;27;20558;-58
2022/04/07 12:16:56;;;;;;;0.28;0.28;;;15.20;99.90;;;;;;5084939;27;20733;-59
2022/04/07 12:19:45;;;;;;;0.65;0.10;;;14.80;99.90;;;;;;5105051;27;20970;-59
2022/04/07 12:22:31;;;;;;;0.40;0.32;;;14.60;99.90;;;;;;5145838;27;20909;-59
2022/04/07 12:25:11;;;;;;;0.43;0.43;;;14.20;99.90;;;;;;5105441;27;20846;-58
2022/04/07 12:27:51;;;;;;;0.32;0.32;;;14.10;99.90;;;;;;5146965;27;20538;-58
2022/04/07 12:30:47;;;;;;;0.50;0.50;;;14.00;99.90;;;;;;5105481;27;21034;-58
2022/04/07 12:33:43;;;;;;;1.00;1.00;;;14.10;99.90;;;;;;5085426;27;21088;-59
2022/04/07 12:36:38;;;;;;;2.28;0.30;;;14.20;99.90;;;;;;5106063;27;20538;-58
2022/04/07 12:39:17;;;;;;;0.13;0.13;;;14.50;99.90;;;;;;5105910;27;20665;-58
2022/04/07 12:42:04;;;;;;;0.70;0.43;;;14.60;99.90;;;;;;5085764;27;20574;-59
2022/04/07 12:44:45;;;;;;;2.72;0.30;;;14.70;99.90;;;;;;5147349;27;21039;-59
2022/04/07 12:47:27;;;;;;;0.70;0.22;;;14.50;99.90;;;;;;5147188;27;20534;-58
2022/04/07 12:50:07;;;;;;;0.38;0.38;;;14.50;99.90;;;;;;5083807;28;21006;-57
2022/04/07 12:52:46;;;;;;;0.28;0.20;;;14.30;99.90;;;;;;5084390;27;20547;-58
2022/04/07 12:55:35;;;;;;;0.68;0.68;;;14.20;99.90;;;;;;5085753;28;20663;-58
2022/04/07 12:58:15;;;;;;;0.17;0.10;;;14.30;99.90;;;;;;5106088;27;20669;-59
2022/04/07 13:01:01;;;;;;;0.47;0.22;;;14.60;99.90;;;;;;5086451;28;20945;-58
2022/04/07 13:03:54;;;;;;;0.28;0.13;;;14.90;99.90;;;;;;5106753;27;21218;-59
2022/04/07 13:06:34;;;;;;;1.25;0.20;;;14.80;99.90;;;;;;5086686;28;20844;-58
2022/04/07 13:09:16;;;;;;;0.47;0.43;;;14.60;99.90;;;;;;5085797;28;20679;-58
2022/04/07 13:11:55;;;;;;;1.38;0.50;;;14.60;99.90;;;;;;5086050;27;20555;-58
2022/04/07 13:14:35;;;;;;;0.63;0.15;;;14.50;99.90;;;;;;5085664;28;20671;-58
2022/04/07 13:17:15;;;;;;;0.03;0.03;;;14.50;99.90;;;;;;5106896;27;20686;-58
2022/04/07 13:19:54;;;;;;;1.08;0.20;;;14.50;99.90;;;;;;5147546;27;20530;-59
2022/04/07 13:22:34;;;;;;;0.57;0.30;;;14.20;99.90;;;;;;5126951;27;21077;-58
2022/04/07 13:25:14;;;;;;;0.20;0.15;;;14.20;99.90;;;;;;5106375;27;20550;-58
2022/04/07 13:27:54;;;;;;;0.52;0.30;;;14.30;99.90;;;;;;5106645;27;20665;-58
2022/04/07 13:30:34;;;;;;;0.95;0.30;;;14.40;99.90;;;;;;5147246;27;20530;-59
2022/04/07 13:33:14;;;;;;;0.40;0.10;;;14.60;99.90;;;;;;5106202;27;21031;-57
2022/04/07 13:35:53;;;;;;;0.55;0.20;;;14.80;99.90;;;;;;5126652;27;20544;-58
2022/04/07 13:38:34;;;;;;;0.20;0.20;;;15.00;99.90;;;;;;5147564;27;21119;-58
2022/04/07 13:41:13;;;;;;;0.68;0.30;;;15.00;99.90;;;;;;5085622;28;20660;-58
2022/04/07 13:43:53;;;;;;;0.20;0.20;;;14.90;99.90;;;;;;5106017;27;20546;-58
2022/04/07 13:46:33;;;;;;;0.55;0.40;;;14.90;99.90;;;;;;5147294;27;20577;-59
2022/04/07 13:49:16;;;;;;;0.35;0.35;;;14.90;99.90;;;;;;5126504;27;20540;-59
2022/04/07 13:51:56;;;;;;;1.13;0.08;;;14.90;99.90;;;;;;5126752;27;20544;-58
2022/04/07 13:54:37;;;;;;;0.13;0.10;;;15.20;99.90;;;;;;5126931;27;21142;-59
2022/04/07 13:57:17;;;;;;;0.05;0.05;;;15.40;99.90;;;;;;5085921;28;20691;-59
2022/04/07 13:59:57;;;;;;;0.10;0.10;;;15.40;99.90;;;;;;5146344;27;20546;-59
2022/04/07 14:02:37;;;;;;;1.20;0.47;;;15.10;99.90;;;;;;5126688;27;20555;-59